Time;durP1;ratioP1;P1;durP2;ratioP2;P2;SDS_P1;SDS_P2;PMS_P1;PMS_P2;Temp;Humidity;BMP_temperature;BMP_pressure;BME280_temperature;BME280_humidity;BME280_pressure;Samples;Min_cycle;Max_cycle;Signal;HPM_P1;HPM_P2
2023/04/19 00:01:49;;;;;;;26.75;19.88;;;10.40;99.90;;;;;;4982119;28;20303;-80
2023/04/19 00:04:14;;;;;;;29.08;18.67;;;10.40;99.90;;;;;;4999416;28;20169;-80
2023/04/19 00:06:41;;;;;;;26.33;19.67;;;10.40;99.90;;;;;;4982195;28;20179;-80
2023/04/19 00:09:07;;;;;;;25.83;19.23;;;10.40;99.90;;;;;;4982231;28;20181;-80
2023/04/19 00:11:33;;;;;;;26.90;19.60;;;10.40;99.90;;;;;;4981989;28;20523;-80
2023/04/19 00:13:59;;;;;;;26.17;19.17;;;10.30;99.90;;;;;;4981560;28;20697;-80
2023/04/19 00:16:25;;;;;;;25.23;19.60;;;10.30;99.90;;;;;;4981006;28;20292;-80
2023/04/19 00:18:51;;;;;;;27.80;19.77;;;10.30;99.90;;;;;;4998996;28;20180;-80
2023/04/19 00:21:17;;;;;;;26.50;19.03;;;10.30;99.90;;;;;;4982167;28;20238;-80
2023/04/19 00:23:42;;;;;;;26.47;18.80;;;10.30;99.90;;;;;;4981927;28;20216;-80
2023/04/19 00:26:10;;;;;;;26.77;19.90;;;10.30;99.90;;;;;;4982937;28;20717;-80
2023/04/19 00:28:36;;;;;;;26.88;20.08;;;10.20;99.90;;;;;;4999981;28;20169;-80
2023/04/19 00:31:02;;;;;;;25.60;19.03;;;10.20;99.90;;;;;;4999572;28;20173;-81
2023/04/19 00:33:27;;;;;;;26.20;19.67;;;10.20;99.90;;;;;;4982510;28;20649;-80
2023/04/19 00:35:53;;;;;;;25.73;19.95;;;10.30;99.90;;;;;;4982251;28;20201;-81
2023/04/19 00:38:19;;;;;;;30.75;20.70;;;10.30;99.90;;;;;;5000140;28;20177;-81
2023/04/19 00:40:45;;;;;;;27.37;19.77;;;10.30;99.90;;;;;;4999618;28;20188;-81
2023/04/19 00:43:11;;;;;;;29.83;21.17;;;10.30;99.90;;;;;;4999350;28;20543;-81
2023/04/19 00:45:37;;;;;;;28.08;18.98;;;10.30;99.90;;;;;;4998862;28;20206;-81
2023/04/19 00:48:03;;;;;;;30.25;19.52;;;10.30;99.90;;;;;;4982130;28;20188;-81
2023/04/19 00:50:29;;;;;;;27.33;20.20;;;10.30;99.90;;;;;;4981748;28;20184;-81
2023/04/19 00:52:56;;;;;;;31.10;20.90;;;10.20;99.90;;;;;;4981173;28;20230;-80
2023/04/19 00:55:23;;;;;;;28.17;20.80;;;10.20;99.90;;;;;;5000022;28;20204;-82
2023/04/19 00:57:50;;;;;;;27.17;19.90;;;10.20;99.90;;;;;;4982475;28;20191;-81
2023/04/19 01:00:16;;;;;;;27.52;20.48;;;10.20;99.90;;;;;;4998859;28;20184;-81
2023/04/19 01:02:42;;;;;;;24.38;18.63;;;10.20;99.90;;;;;;4982570;28;20212;-81
2023/04/19 01:05:08;;;;;;;27.77;20.50;;;10.20;99.90;;;;;;4982146;28;20612;-81
2023/04/19 01:07:34;;;;;;;30.23;19.40;;;10.20;99.90;;;;;;4983007;28;20556;-82
2023/04/19 01:10:00;;;;;;;29.90;21.25;;;10.20;99.90;;;;;;4999945;28;20237;-82
2023/04/19 01:12:25;;;;;;;28.13;19.52;;;10.20;99.90;;;;;;5000080;28;20176;-82
2023/04/19 01:14:51;;;;;;;28.15;19.90;;;10.20;99.90;;;;;;4999857;28;20242;-81
2023/04/19 01:17:18;;;;;;;26.83;20.10;;;10.20;99.90;;;;;;5000553;28;20711;-80
2023/04/19 01:19:44;;;;;;;32.70;20.58;;;10.20;99.90;;;;;;4982075;28;20255;-80
2023/04/19 01:22:17;;;;;;;25.85;19.73;;;10.20;99.90;;;;;;4999709;28;20196;-80
2023/04/19 01:24:43;;;;;;;26.85;19.23;;;10.20;99.90;;;;;;4999345;28;20219;-80
2023/04/19 01:27:08;;;;;;;27.30;19.95;;;10.20;99.90;;;;;;4999973;28;20173;-80
2023/04/19 01:29:34;;;;;;;26.35;19.25;;;10.20;99.90;;;;;;4982775;28;20180;-80
2023/04/19 01:32:00;;;;;;;24.10;18.80;;;10.20;99.90;;;;;;4982749;28;20190;-80
2023/04/19 01:34:26;;;;;;;23.80;18.90;;;10.20;99.90;;;;;;4998788;28;20255;-80
2023/04/19 01:36:52;;;;;;;23.77;19.83;;;10.20;99.90;;;;;;4981873;28;20204;-81
2023/04/19 01:39:17;;;;;;;25.02;19.17;;;10.20;99.90;;;;;;4980584;28;20180;-81
2023/04/19 01:41:43;;;;;;;28.00;19.15;;;10.20;99.90;;;;;;4998569;28;20226;-81
2023/04/19 01:44:09;;;;;;;24.50;18.52;;;10.20;99.90;;;;;;4997932;28;20255;-81
2023/04/19 01:46:37;;;;;;;24.38;19.00;;;10.30;99.90;;;;;;4980960;28;20263;-81
2023/04/19 01:49:03;;;;;;;25.13;18.67;;;10.30;99.90;;;;;;4980783;28;20590;-81
2023/04/19 01:51:29;;;;;;;23.92;18.20;;;10.30;99.90;;;;;;4998267;28;20207;-81
2023/04/19 01:53:55;;;;;;;22.08;17.17;;;10.20;99.90;;;;;;4997890;28;20231;-81
2023/04/19 01:56:20;;;;;;;23.65;15.75;;;10.20;99.90;;;;;;4980609;28;20268;-81
2023/04/19 01:58:46;;;;;;;20.70;16.27;;;10.20;99.90;;;;;;4998131;28;20176;-81
2023/04/19 02:01:12;;;;;;;23.73;15.90;;;10.20;99.90;;;;;;4980769;28;20180;-82
2023/04/19 02:03:38;;;;;;;18.92;14.15;;;10.20;99.90;;;;;;4999192;28;20204;-81
2023/04/19 02:06:04;;;;;;;19.38;15.35;;;10.20;99.90;;;;;;4984759;28;20203;-82
2023/04/19 02:08:30;;;;;;;22.98;14.50;;;10.10;99.90;;;;;;4986110;28;20173;-81
2023/04/19 02:10:56;;;;;;;16.95;13.32;;;10.20;99.90;;;;;;4986874;28;20187;-81
2023/04/19 02:13:21;;;;;;;16.80;12.25;;;10.10;99.90;;;;;;5002380;28;20660;-82
2023/04/19 02:15:48;;;;;;;17.05;11.90;;;10.10;99.90;;;;;;5001938;28;20208;-81
2023/04/19 02:18:13;;;;;;;13.05;10.30;;;10.20;99.90;;;;;;5001874;28;20180;-81
2023/04/19 02:20:39;;;;;;;13.57;9.98;;;10.10;99.90;;;;;;4984370;28;20185;-82
2023/04/19 02:23:05;;;;;;;12.60;9.63;;;10.20;99.90;;;;;;5001979;28;20210;-82
2023/04/19 02:25:30;;;;;;;11.73;9.35;;;10.20;99.90;;;;;;5001549;28;20195;-81
2023/04/19 02:27:56;;;;;;;13.60;9.90;;;10.10;99.90;;;;;;4984338;28;20180;-81
2023/04/19 02:30:22;;;;;;;10.50;8.70;;;10.10;99.90;;;;;;4984335;28;20248;-81
2023/04/19 02:32:48;;;;;;;11.20;9.07;;;10.10;99.90;;;;;;4984623;28;20199;-81
2023/04/19 02:35:15;;;;;;;9.50;8.00;;;10.10;99.90;;;;;;5002469;28;20568;-81
2023/04/19 02:37:41;;;;;;;10.90;8.30;;;10.10;99.90;;;;;;4984414;28;20180;-81
2023/04/19 02:40:08;;;;;;;11.03;8.10;;;10.10;99.90;;;;;;5002452;28;20184;-81
2023/04/19 02:42:33;;;;;;;9.57;7.67;;;10.00;99.90;;;;;;4983887;28;20240;-81
2023/04/19 02:44:59;;;;;;;8.95;7.05;;;10.00;99.90;;;;;;5000495;28;20223;-82
2023/04/19 02:47:25;;;;;;;11.10;7.63;;;10.00;99.90;;;;;;5000863;28;20204;-83
2023/04/19 02:49:50;;;;;;;10.10;7.77;;;10.00;99.90;;;;;;5000624;28;20184;-82
2023/04/19 02:52:16;;;;;;;10.23;7.87;;;10.00;99.90;;;;;;4984157;28;20231;-82
2023/04/19 02:54:42;;;;;;;9.30;7.83;;;10.00;99.90;;;;;;4983668;28;20208;-81
2023/04/19 02:57:07;;;;;;;10.13;7.83;;;10.00;99.90;;;;;;5001084;28;20657;-82
2023/04/19 02:59:33;;;;;;;10.33;8.10;;;10.00;99.90;;;;;;4983494;28;20180;-82
2023/04/19 03:01:59;;;;;;;10.03;7.13;;;10.00;99.90;;;;;;4984308;28;20212;-82
2023/04/19 03:04:25;;;;;;;10.60;8.23;;;9.90;99.90;;;;;;5001528;28;20196;-82
2023/04/19 03:06:52;;;;;;;9.25;7.45;;;9.90;99.90;;;;;;4983720;28;20555;-82
2023/04/19 03:09:17;;;;;;;10.33;7.40;;;9.90;99.90;;;;;;5001450;28;20622;-81
2023/04/19 03:11:43;;;;;;;9.87;8.07;;;9.90;99.90;;;;;;5001676;28;20177;-81
2023/04/19 03:14:09;;;;;;;10.43;8.13;;;9.90;99.90;;;;;;4983811;28;20200;-80
2023/04/19 03:16:35;;;;;;;9.10;7.20;;;9.90;99.90;;;;;;5001369;28;20183;-80
2023/04/19 03:19:01;;;;;;;9.27;7.13;;;9.90;99.90;;;;;;4984157;28;20188;-80
2023/04/19 03:21:27;;;;;;;11.87;7.90;;;9.90;99.90;;;;;;5001048;28;20183;-80
2023/04/19 03:23:58;;;;;;;12.77;8.20;;;9.90;99.90;;;;;;5001492;28;20293;-80
2023/04/19 03:26:24;;;;;;;9.27;7.40;;;9.90;99.90;;;;;;4983862;28;20210;-80
2023/04/19 03:28:50;;;;;;;8.40;7.03;;;9.90;99.90;;;;;;4984049;28;20641;-80
2023/04/19 03:31:15;;;;;;;9.97;7.40;;;9.80;99.90;;;;;;5009741;28;20183;-80
2023/04/19 03:33:41;;;;;;;11.60;8.13;;;9.80;99.90;;;;;;5003496;28;20553;-80
2023/04/19 03:36:07;;;;;;;10.13;7.83;;;9.70;99.90;;;;;;5002653;28;20196;-81
2023/04/19 03:38:33;;;;;;;10.60;7.53;;;9.80;99.90;;;;;;5000129;28;20259;-80
2023/04/19 03:40:58;;;;;;;11.33;7.27;;;9.80;99.90;;;;;;4981996;28;20192;-80
2023/04/19 03:43:24;;;;;;;11.30;7.83;;;9.70;99.90;;;;;;4983733;28;20208;-83
2023/04/19 03:45:50;;;;;;;9.97;7.53;;;9.70;99.90;;;;;;5001841;28;20193;-83
2023/04/19 03:48:16;;;;;;;9.53;7.77;;;9.70;99.90;;;;;;4984033;28;20180;-83
2023/04/19 03:50:42;;;;;;;10.47;7.37;;;9.70;99.90;;;;;;4984046;28;20188;-83
2023/04/19 03:53:08;;;;;;;9.93;7.50;;;9.70;99.90;;;;;;5001605;28;20185;-83
2023/04/19 03:55:33;;;;;;;9.77;7.80;;;9.70;99.90;;;;;;4984289;28;20211;-83
2023/04/19 03:57:59;;;;;;;10.10;7.07;;;9.70;99.90;;;;;;5002775;28;20267;-83
2023/04/19 04:00:26;;;;;;;8.70;7.10;;;9.60;99.90;;;;;;4984323;28;20322;-82
2023/04/19 04:02:52;;;;;;;9.00;7.37;;;9.60;99.90;;;;;;5001056;28;20206;-82
2023/04/19 04:05:18;;;;;;;9.30;7.53;;;9.60;99.90;;;;;;4984337;28;20250;-83
2023/04/19 04:07:44;;;;;;;11.40;7.03;;;9.60;99.90;;;;;;4984354;28;20204;-84
2023/04/19 04:10:10;;;;;;;7.97;7.10;;;9.60;99.90;;;;;;5001406;28;20653;-84
2023/04/19 04:12:36;;;;;;;9.77;7.67;;;9.60;99.90;;;;;;4983309;28;20208;-80
2023/04/19 04:15:02;;;;;;;9.40;7.40;;;9.50;99.90;;;;;;4982242;28;20228;-79
2023/04/19 04:17:27;;;;;;;10.23;7.80;;;9.50;99.90;;;;;;4997429;28;20212;-79
2023/04/19 04:19:53;;;;;;;9.67;7.40;;;9.50;99.90;;;;;;4997487;28;20526;-78
2023/04/19 04:22:20;;;;;;;10.53;7.23;;;9.50;99.90;;;;;;4981211;28;20582;-79
2023/04/19 04:24:46;;;;;;;9.93;7.50;;;9.40;99.90;;;;;;4982296;28;20671;-80
2023/04/19 04:27:12;;;;;;;8.53;7.30;;;9.40;99.90;;;;;;4998149;28;20236;-79
2023/04/19 04:29:40;;;;;;;10.47;8.10;;;9.40;99.90;;;;;;4998558;28;20255;-80
2023/04/19 04:32:10;;;;;;;10.27;7.73;;;9.40;99.90;;;;;;4998215;28;20176;-79
2023/04/19 04:34:36;;;;;;;9.60;7.57;;;9.40;99.90;;;;;;4981026;28;20259;-79
2023/04/19 04:37:02;;;;;;;10.37;7.33;;;9.40;99.90;;;;;;4998005;28;20189;-79
2023/04/19 04:39:29;;;;;;;9.33;7.33;;;9.30;99.90;;;;;;4981228;28;20188;-79
2023/04/19 04:41:56;;;;;;;10.67;8.10;;;9.30;99.90;;;;;;4980451;28;20264;-80
2023/04/19 04:44:23;;;;;;;9.57;7.53;;;9.30;99.90;;;;;;4997190;28;20192;-80
2023/04/19 04:46:49;;;;;;;8.37;7.47;;;9.30;99.90;;;;;;4981450;28;20692;-80
2023/04/19 04:49:14;;;;;;;8.97;7.73;;;9.20;99.90;;;;;;4998303;28;20177;-80
2023/04/19 04:51:40;;;;;;;8.80;7.47;;;9.20;99.90;;;;;;4981543;28;20185;-80
2023/04/19 04:54:06;;;;;;;10.13;7.97;;;9.20;99.90;;;;;;4999313;28;20184;-80
2023/04/19 04:56:31;;;;;;;11.07;8.20;;;9.20;99.90;;;;;;4998155;28;20187;-79
2023/04/19 04:58:58;;;;;;;11.70;8.27;;;9.10;99.90;;;;;;4980695;28;20183;-79
2023/04/19 05:01:23;;;;;;;9.43;7.93;;;9.10;99.90;;;;;;4997572;28;20169;-80
2023/04/19 05:03:50;;;;;;;10.60;8.83;;;9.10;99.90;;;;;;4980191;28;20673;-79
2023/04/19 05:06:16;;;;;;;10.30;8.07;;;9.00;99.90;;;;;;4997669;28;20735;-80
2023/04/19 05:08:43;;;;;;;11.27;8.40;;;9.00;99.90;;;;;;4997475;28;20199;-79
2023/04/19 05:11:09;;;;;;;10.87;8.03;;;9.00;99.90;;;;;;4980441;28;20232;-79
2023/04/19 05:13:34;;;;;;;10.80;8.00;;;9.00;99.90;;;;;;4980986;28;20188;-80
2023/04/19 05:16:00;;;;;;;10.27;7.70;;;9.00;99.90;;;;;;4998200;28;20192;-80
2023/04/19 05:18:26;;;;;;;12.93;8.87;;;9.00;99.90;;;;;;4998192;28;20187;-80
2023/04/19 05:20:51;;;;;;;9.57;8.33;;;8.90;99.90;;;;;;4997565;28;20176;-80
2023/04/19 05:23:17;;;;;;;9.33;7.60;;;8.90;99.90;;;;;;4997654;28;20196;-80
2023/04/19 05:25:43;;;;;;;10.80;8.30;;;8.90;99.90;;;;;;4980215;28;20196;-80
2023/04/19 05:28:09;;;;;;;10.03;8.47;;;8.90;99.90;;;;;;4998566;28;20172;-80
2023/04/19 05:30:35;;;;;;;9.53;8.07;;;8.90;99.90;;;;;;4998220;28;20532;-80
2023/04/19 05:33:00;;;;;;;12.27;9.13;;;9.00;99.90;;;;;;4980037;28;20180;-80
2023/04/19 05:35:26;;;;;;;12.23;8.77;;;9.00;99.90;;;;;;4997397;28;20207;-79
2023/04/19 05:37:52;;;;;;;11.90;8.80;;;9.10;99.90;;;;;;4980472;28;20705;-79
2023/04/19 05:40:18;;;;;;;10.67;7.80;;;9.10;99.90;;;;;;4997854;28;20180;-80
2023/04/19 05:42:44;;;;;;;11.03;8.20;;;9.20;99.90;;;;;;4997641;28;20204;-79
2023/04/19 05:45:10;;;;;;;10.47;8.17;;;9.30;99.90;;;;;;4997832;28;20201;-79
2023/04/19 05:47:36;;;;;;;10.37;8.10;;;9.30;99.90;;;;;;4978864;28;20316;-79
2023/04/19 05:50:05;;;;;;;9.83;7.77;;;9.40;99.90;;;;;;4980935;28;20228;-82
2023/04/19 05:52:31;;;;;;;11.33;8.00;;;9.50;99.90;;;;;;4998831;28;20231;-82
2023/04/19 05:54:57;;;;;;;9.70;7.73;;;9.60;99.90;;;;;;4998045;28;20204;-81
2023/04/19 05:57:23;;;;;;;11.13;7.83;;;9.60;99.90;;;;;;4980245;28;20184;-82
2023/04/19 05:59:49;;;;;;;8.53;7.43;;;9.60;99.90;;;;;;4998080;28;20176;-82
2023/04/19 06:02:15;;;;;;;11.93;8.13;;;9.60;99.90;;;;;;4997691;28;20200;-82
2023/04/19 06:04:40;;;;;;;10.27;8.63;;;9.60;99.90;;;;;;4997654;28;20272;-82
2023/04/19 06:07:06;;;;;;;8.70;7.13;;;9.50;99.90;;;;;;4997547;28;20172;-82
2023/04/19 06:09:32;;;;;;;11.50;8.93;;;9.50;99.90;;;;;;4979884;28;20191;-82
2023/04/19 06:11:58;;;;;;;9.83;8.17;;;9.50;99.90;;;;;;4995864;28;20184;-82
2023/04/19 06:14:27;;;;;;;10.90;8.10;;;9.50;99.90;;;;;;4997141;28;20244;-82
2023/04/19 06:16:53;;;;;;;10.60;7.70;;;9.40;99.90;;;;;;4997439;28;20238;-82
2023/04/19 06:19:18;;;;;;;11.07;8.17;;;9.20;99.90;;;;;;4997131;28;20176;-82
2023/04/19 06:21:44;;;;;;;9.67;7.37;;;9.20;99.90;;;;;;4979919;28;20204;-82
2023/04/19 06:24:10;;;;;;;10.87;7.40;;;9.10;99.90;;;;;;4997408;28;20169;-81
2023/04/19 06:26:36;;;;;;;9.83;7.73;;;9.10;99.90;;;;;;4997323;28;20184;-82
2023/04/19 06:29:02;;;;;;;10.23;7.87;;;9.00;99.90;;;;;;4997153;28;20173;-82
2023/04/19 06:31:27;;;;;;;8.10;7.30;;;8.90;99.90;;;;;;4997905;28;20733;-82
2023/04/19 06:33:53;;;;;;;11.83;7.33;;;8.90;99.90;;;;;;4997036;28;20527;-82
2023/04/19 06:36:19;;;;;;;10.13;7.60;;;9.00;99.90;;;;;;4997841;28;20280;-82
2023/04/19 06:38:45;;;;;;;10.87;7.43;;;9.10;99.90;;;;;;4979585;28;20660;-82
2023/04/19 06:41:11;;;;;;;9.43;6.83;;;9.20;99.90;;;;;;4995125;28;20242;-82
2023/04/19 06:43:39;;;;;;;9.27;6.87;;;9.20;99.90;;;;;;4977512;28;20236;-82
2023/04/19 06:46:05;;;;;;;8.57;7.13;;;9.10;99.90;;;;;;4977519;28;20201;-82
2023/04/19 06:48:33;;;;;;;8.97;7.03;;;9.00;99.90;;;;;;4994829;28;20187;-82
2023/04/19 06:50:59;;;;;;;10.00;7.03;;;9.00;99.90;;;;;;4997531;28;20173;-82
2023/04/19 06:53:28;;;;;;;9.00;6.70;;;9.00;99.90;;;;;;4998222;28;20183;-82
2023/04/19 06:56:01;;;;;;;9.03;6.33;;;9.10;99.90;;;;;;4980833;28;20208;-81
2023/04/19 06:58:27;;;;;;;8.03;6.67;;;9.40;99.90;;;;;;4996951;28;20187;-81
2023/04/19 07:00:53;;;;;;;8.03;6.57;;;9.50;99.90;;;;;;4980366;28;20707;-81
2023/04/19 07:03:19;;;;;;;9.77;6.90;;;9.60;99.90;;;;;;4981729;28;20208;-82
2023/04/19 07:05:45;;;;;;;11.67;6.40;;;9.80;99.90;;;;;;4998279;28;20559;-82
2023/04/19 07:08:11;;;;;;;7.83;6.50;;;9.80;99.90;;;;;;4980679;28;20176;-82
2023/04/19 07:10:37;;;;;;;10.33;6.47;;;9.80;99.90;;;;;;4980089;28;20180;-82
2023/04/19 07:13:02;;;;;;;7.93;6.17;;;9.90;99.90;;;;;;4980186;28;20716;-82
2023/04/19 07:15:28;;;;;;;9.67;6.17;;;10.00;99.90;;;;;;4980088;28;20248;-82
2023/04/19 07:17:54;;;;;;;8.17;6.03;;;10.00;99.90;;;;;;4980561;28;20207;-82
2023/04/19 07:20:20;;;;;;;11.87;6.13;;;10.00;99.90;;;;;;4980042;28;20188;-82
2023/04/19 07:22:46;;;;;;;8.40;5.57;;;10.00;99.90;;;;;;4981267;28;20210;-82
2023/04/19 07:25:13;;;;;;;7.27;5.80;;;10.10;99.90;;;;;;4996201;28;20203;-82
2023/04/19 07:27:39;;;;;;;7.03;5.20;;;10.10;99.90;;;;;;4981439;28;20188;-82
2023/04/19 07:30:05;;;;;;;10.73;5.73;;;10.30;99.90;;;;;;4998805;28;20169;-82
2023/04/19 07:32:31;;;;;;;6.40;5.57;;;10.30;99.90;;;;;;4998748;28;20168;-82
2023/04/19 07:34:57;;;;;;;7.53;5.83;;;10.30;99.90;;;;;;4998813;28;20192;-82
2023/04/19 07:37:23;;;;;;;6.70;5.57;;;10.50;99.90;;;;;;4999254;28;20184;-82
2023/04/19 07:39:48;;;;;;;6.33;5.27;;;10.50;99.90;;;;;;4981213;28;20181;-82
2023/04/19 07:42:14;;;;;;;9.37;5.63;;;10.60;99.90;;;;;;4998519;28;20274;-82
2023/04/19 07:44:40;;;;;;;9.77;5.30;;;10.50;99.90;;;;;;4998374;28;20283;-82
2023/04/19 07:47:05;;;;;;;5.73;4.87;;;10.50;99.90;;;;;;4998989;28;20169;-82
2023/04/19 07:49:33;;;;;;;8.30;5.43;;;10.50;99.90;;;;;;4981415;28;20633;-82
2023/04/19 07:52:02;;;;;;;5.37;4.87;;;10.50;99.90;;;;;;4981652;28;20184;-82
2023/04/19 07:54:29;;;;;;;9.40;5.60;;;10.60;99.90;;;;;;4980767;28;20287;-81
2023/04/19 07:56:56;;;;;;;7.53;5.10;;;10.80;99.90;;;;;;4998535;28;20164;-82
2023/04/19 07:59:22;;;;;;;7.20;5.43;;;10.80;99.90;;;;;;4980909;28;20271;-82
2023/04/19 08:01:48;;;;;;;9.13;5.57;;;10.80;99.90;;;;;;4996908;28;20674;-82
2023/04/19 08:04:15;;;;;;;5.90;5.30;;;10.70;99.90;;;;;;4980741;28;20250;-81
2023/04/19 08:06:41;;;;;;;8.63;5.03;;;10.70;99.90;;;;;;4998502;28;20168;-82
2023/04/19 08:09:07;;;;;;;8.83;5.03;;;10.70;99.90;;;;;;4998893;28;20590;-82
2023/04/19 08:11:33;;;;;;;9.10;5.22;;;10.80;99.90;;;;;;4981389;28;20246;-81
2023/04/19 08:13:58;;;;;;;7.50;4.60;;;10.90;99.90;;;;;;4980971;28;20197;-81
2023/04/19 08:16:24;;;;;;;8.52;5.53;;;10.80;99.90;;;;;;4998642;28;20203;-81
2023/04/19 08:18:51;;;;;;;7.60;5.07;;;11.00;99.90;;;;;;4981139;28;20184;-81
2023/04/19 08:21:17;;;;;;;6.68;5.00;;;11.10;99.90;;;;;;4998235;28;20169;-81
2023/04/19 08:23:43;;;;;;;6.05;5.05;;;11.50;99.90;;;;;;4980719;28;20204;-81
2023/04/19 08:26:08;;;;;;;5.38;4.65;;;12.40;99.90;;;;;;4998767;28;20315;-81
2023/04/19 08:28:34;;;;;;;6.90;5.25;;;13.50;99.90;;;;;;4998412;28;20164;-81
2023/04/19 08:31:04;;;;;;;5.68;4.80;;;14.30;99.90;;;;;;4986491;28;20240;-82
2023/04/19 08:33:30;;;;;;;5.30;4.78;;;14.80;99.90;;;;;;4984714;28;20593;-82
2023/04/19 08:35:55;;;;;;;7.70;4.55;;;15.20;99.90;;;;;;4996644;28;20235;-81
2023/04/19 08:38:21;;;;;;;8.85;5.30;;;15.30;99.90;;;;;;4979747;28;20185;-82
2023/04/19 08:40:52;;;;;;;5.78;4.75;;;15.60;99.90;;;;;;4978861;28;20192;-82
2023/04/19 08:43:19;;;;;;;5.68;4.63;;;15.80;99.90;;;;;;4997956;28;20628;-80
2023/04/19 08:45:48;;;;;;;5.90;4.10;;;16.10;99.90;;;;;;4997953;28;20198;-79
2023/04/19 08:48:15;;;;;;;5.60;4.20;;;16.40;99.90;;;;;;4980214;28;20570;-79
2023/04/19 08:50:42;;;;;;;6.25;4.10;;;16.40;99.90;;;;;;4979725;28;20190;-79
2023/04/19 08:53:11;;;;;;;4.63;3.88;;;16.50;99.90;;;;;;4979291;28;20187;-79
2023/04/19 08:55:42;;;;;;;5.05;4.50;;;16.50;99.20;;;;;;4979072;28;20584;-79
2023/04/19 08:58:08;;;;;;;5.63;4.03;;;16.70;99.90;;;;;;4979659;28;20176;-79
2023/04/19 09:00:37;;;;;;;4.55;3.47;;;17.10;98.80;;;;;;4979175;28;20657;-79
2023/04/19 09:03:04;;;;;;;8.20;3.78;;;17.00;97.70;;;;;;4979669;28;20235;-79
2023/04/19 09:05:30;;;;;;;3.90;3.50;;;17.30;98.30;;;;;;4996475;28;20192;-80
2023/04/19 09:08:21;;;;;;;4.35;3.95;;;18.10;98.50;;;;;;4996183;28;20177;-79
2023/04/19 09:10:58;;;;;;;4.10;3.25;;;18.80;97.50;;;;;;4996253;28;20189;-79
2023/04/19 09:13:24;;;;;;;3.88;3.47;;;19.00;94.70;;;;;;4978546;28;20211;-80
2023/04/19 09:15:52;;;;;;;6.78;3.35;;;19.20;93.90;;;;;;4996715;28;20212;-80
2023/04/19 09:18:18;;;;;;;4.00;3.70;;;18.90;92.80;;;;;;4997408;28;20255;-80
2023/04/19 09:20:45;;;;;;;3.80;3.50;;;19.00;93.20;;;;;;4980445;28;20176;-79
2023/04/19 09:23:13;;;;;;;4.63;3.63;;;18.40;90.10;;;;;;4996854;28;20196;-79
2023/04/19 09:25:54;;;;;;;4.60;3.67;;;18.20;91.00;;;;;;4996730;28;20207;-79
2023/04/19 09:28:20;;;;;;;5.30;3.67;;;17.70;90.60;;;;;;4979167;28;20243;-79
2023/04/19 09:30:46;;;;;;;4.63;4.07;;;17.60;90.70;;;;;;4996629;28;20168;-79
2023/04/19 09:33:12;;;;;;;6.53;3.72;;;17.70;91.50;;;;;;4996333;28;20263;-79
2023/04/19 09:35:47;;;;;;;4.72;4.15;;;17.60;90.70;;;;;;4978769;28;20247;-79
2023/04/19 09:38:13;;;;;;;5.70;4.03;;;16.90;91.10;;;;;;4979161;28;20199;-79
2023/04/19 09:40:40;;;;;;;5.32;4.40;;;17.10;91.70;;;;;;4978379;28;20645;-79
2023/04/19 09:43:06;;;;;;;5.47;4.30;;;16.90;90.40;;;;;;4978247;28;20699;-79
2023/04/19 09:45:45;;;;;;;4.50;4.10;;;16.90;91.60;;;;;;4995520;28;20197;-79
2023/04/19 09:48:13;;;;;;;4.85;4.20;;;17.20;92.40;;;;;;4995656;28;20234;-79
2023/04/19 09:50:56;;;;;;;4.30;3.90;;;17.60;92.10;;;;;;4996104;28;20172;-79
2023/04/19 09:53:23;;;;;;;4.80;4.18;;;17.40;90.40;;;;;;4978116;28;20186;-79
2023/04/19 09:55:49;;;;;;;4.13;3.78;;;17.20;90.70;;;;;;4995786;28;20232;-80
2023/04/19 09:58:18;;;;;;;4.60;3.97;;;16.90;90.70;;;;;;4977965;28;20202;-79
2023/04/19 10:00:46;;;;;;;4.72;4.18;;;16.90;90.80;;;;;;4978060;28;20180;-79
2023/04/19 10:03:15;;;;;;;5.38;4.22;;;16.30;89.10;;;;;;4995343;28;20196;-79
2023/04/19 10:05:43;;;;;;;6.03;4.28;;;16.20;91.00;;;;;;4995524;28;20200;-79
2023/04/19 10:08:10;;;;;;;5.20;4.70;;;16.00;89.90;;;;;;4995479;28;20173;-79
2023/04/19 10:10:38;;;;;;;4.97;4.38;;;15.90;90.60;;;;;;4978050;28;20184;-79
2023/04/19 10:13:07;;;;;;;6.55;4.22;;;15.60;90.40;;;;;;4994389;28;20583;-79
2023/04/19 10:15:35;;;;;;;6.43;4.20;;;15.40;90.60;;;;;;4995135;28;20309;-79
2023/04/19 10:18:03;;;;;;;5.28;4.40;;;15.30;90.50;;;;;;4977329;28;20192;-79
2023/04/19 10:21:12;;;;;;;6.45;4.75;;;15.20;91.10;;;;;;4978164;28;20238;-78
2023/04/19 10:23:38;;;;;;;5.22;4.72;;;15.00;91.40;;;;;;4955169;29;20201;-80
2023/04/19 10:26:05;;;;;;;6.60;4.50;;;14.80;91.50;;;;;;4988504;28;20222;-79
2023/04/19 10:28:30;;;;;;;5.55;4.53;;;14.50;91.80;;;;;;4999031;28;20180;-78
2023/04/19 10:31:01;;;;;;;6.40;4.50;;;14.50;92.10;;;;;;4980957;28;20180;-78
2023/04/19 10:33:30;;;;;;;7.22;4.53;;;14.60;92.50;;;;;;4981467;28;20180;-78
2023/04/19 10:36:00;;;;;;;5.82;4.43;;;14.60;92.50;;;;;;4998323;28;20196;-79
2023/04/19 10:38:50;;;;;;;5.47;4.55;;;14.60;92.50;;;;;;4998294;28;20264;-79
2023/04/19 10:41:20;;;;;;;6.10;4.72;;;14.50;92.50;;;;;;4998110;28;20235;-79
2023/04/19 10:43:56;;;;;;;8.10;5.10;;;14.20;92.90;;;;;;4998094;28;20216;-79
2023/04/19 10:46:23;;;;;;;7.15;4.63;;;14.10;93.70;;;;;;4979957;28;20207;-79
2023/04/19 10:48:59;;;;;;;5.20;4.43;;;14.20;93.50;;;;;;4998054;28;20575;-79
2023/04/19 10:51:34;;;;;;;10.07;4.75;;;14.40;94.50;;;;;;4997643;28;20179;-79
2023/04/19 10:54:34;;;;;;;4.85;4.38;;;14.70;95.90;;;;;;4996483;28;20183;-79
2023/04/19 10:57:05;;;;;;;4.82;4.30;;;15.00;94.80;;;;;;4998199;28;20555;-79
2023/04/19 10:59:35;;;;;;;8.23;4.60;;;15.10;94.50;;;;;;4998002;28;20169;-79
2023/04/19 11:02:03;;;;;;;6.18;4.20;;;15.20;94.30;;;;;;4998243;28;20164;-79
2023/04/19 11:04:29;;;;;;;7.00;4.55;;;15.30;92.40;;;;;;4997948;28;20532;-79
2023/04/19 11:07:00;;;;;;;8.27;4.35;;;15.30;91.90;;;;;;4998180;28;20188;-79
2023/04/19 11:09:33;;;;;;;7.30;4.68;;;15.40;93.00;;;;;;4980380;28;20173;-79
2023/04/19 11:12:09;;;;;;;6.82;4.28;;;15.40;91.70;;;;;;4980872;28;20334;-79
2023/04/19 11:14:38;;;;;;;5.00;4.10;;;15.70;91.80;;;;;;4997661;28;20208;-79
2023/04/19 11:17:26;;;;;;;4.70;4.15;;;15.60;91.10;;;;;;4997971;28;20177;-79
2023/04/19 11:19:59;;;;;;;9.10;4.55;;;15.60;92.60;;;;;;4998147;28;20173;-79
2023/04/19 11:22:34;;;;;;;7.47;4.40;;;15.90;91.80;;;;;;4980891;28;20282;-79
2023/04/19 11:25:11;;;;;;;7.22;4.10;;;16.00;91.60;;;;;;4980169;28;20196;-79
2023/04/19 11:27:37;;;;;;;7.70;4.97;;;16.10;91.90;;;;;;4997475;28;20234;-79
2023/04/19 11:30:21;;;;;;;5.13;4.18;;;15.80;90.10;;;;;;4979975;28;20185;-79
2023/04/19 11:32:56;;;;;;;5.55;4.10;;;16.20;91.00;;;;;;4998414;28;20156;-79
2023/04/19 11:35:23;;;;;;;6.88;4.80;;;16.20;90.80;;;;;;4980737;28;20202;-78
2023/04/19 11:37:49;;;;;;;7.18;4.70;;;16.30;90.30;;;;;;4980468;28;20185;-79
2023/04/19 11:40:17;;;;;;;5.50;4.47;;;16.40;90.60;;;;;;4998086;28;20645;-79
2023/04/19 11:42:44;;;;;;;6.15;4.22;;;16.30;90.90;;;;;;4997908;28;20263;-79
2023/04/19 11:45:10;;;;;;;7.22;4.68;;;16.40;91.40;;;;;;4998056;28;20621;-79
2023/04/19 11:47:47;;;;;;;7.65;4.90;;;16.50;91.30;;;;;;4980305;28;20176;-79
2023/04/19 11:50:42;;;;;;;5.78;4.68;;;16.60;91.60;;;;;;4980246;28;20180;-79
2023/04/19 11:53:16;;;;;;;6.15;4.68;;;16.80;90.90;;;;;;4998221;28;20621;-79
2023/04/19 11:55:53;;;;;;;7.45;4.70;;;16.60;90.20;;;;;;4996977;28;20246;-79
2023/04/19 11:58:48;;;;;;;6.10;4.85;;;16.60;90.20;;;;;;4979460;28;20180;-79
2023/04/19 12:01:14;;;;;;;7.00;5.03;;;16.60;90.20;;;;;;4991489;28;20243;-79
2023/04/19 12:03:54;;;;;;;8.15;5.10;;;16.80;90.60;;;;;;4979085;28;20215;-79
2023/04/19 12:06:32;;;;;;;7.55;5.10;;;16.80;90.50;;;;;;4996407;28;20192;-79
2023/04/19 12:08:58;;;;;;;6.53;4.97;;;17.00;91.10;;;;;;4996810;28;20216;-79
2023/04/19 12:11:41;;;;;;;8.13;4.80;;;17.30;91.30;;;;;;4996638;28;20172;-79
2023/04/19 12:14:09;;;;;;;7.03;5.10;;;17.30;89.10;;;;;;4996842;28;20195;-79
2023/04/19 12:16:34;;;;;;;8.15;4.68;;;17.30;89.90;;;;;;4996676;28;20207;-79
2023/04/19 12:19:12;;;;;;;6.82;5.03;;;17.30;89.80;;;;;;4996820;28;20208;-79
2023/04/19 12:21:38;;;;;;;6.95;4.93;;;17.40;89.60;;;;;;4996613;28;20161;-79
2023/04/19 12:24:04;;;;;;;6.03;4.75;;;17.30;88.90;;;;;;4996295;28;20204;-79
2023/04/19 12:26:31;;;;;;;7.40;4.60;;;17.40;88.70;;;;;;4996931;28;20538;-79
2023/04/19 12:28:58;;;;;;;6.38;4.68;;;17.40;88.70;;;;;;4997004;28;20168;-79
2023/04/19 12:31:25;;;;;;;5.32;4.82;;;17.60;88.60;;;;;;4997032;28;20248;-79
2023/04/19 12:33:51;;;;;;;7.57;4.80;;;17.60;88.40;;;;;;4996785;28;20172;-78
2023/04/19 12:36:17;;;;;;;6.50;4.65;;;17.70;86.60;;;;;;4997924;28;20223;-79
2023/04/19 12:38:43;;;;;;;9.10;5.35;;;17.90;88.00;;;;;;4979924;28;20192;-79
2023/04/19 12:41:08;;;;;;;6.97;4.75;;;17.90;87.10;;;;;;4997853;28;20177;-79
2023/04/19 12:43:34;;;;;;;6.07;4.53;;;17.90;86.00;;;;;;4979669;28;20266;-79
2023/04/19 12:46:00;;;;;;;7.40;4.28;;;18.00;84.90;;;;;;4979921;28;20589;-79